createdAt,value
2024-01-11T00:02:51.139Z,35.00
2024-01-11T00:17:51.644Z,35.20
2024-01-11T00:32:52.130Z,33.80
2024-01-11T00:47:52.539Z,35.10
2024-01-11T01:02:53.087Z,34.70
2024-01-11T01:17:53.748Z,35.00
2024-01-11T01:32:54.477Z,35.10
2024-01-11T01:47:55.085Z,34.70
2024-01-11T02:02:55.631Z,33.60
2024-01-11T02:17:55.920Z,35.00
2024-01-11T02:32:56.707Z,34.00
2024-01-11T02:47:57.266Z,31.00
2024-01-11T03:02:57.637Z,29.60
2024-01-11T03:17:58.274Z,30.00
2024-01-11T03:32:59.117Z,31.00
2024-01-11T03:47:59.726Z,31.10
2024-01-11T04:03:00.214Z,31.50
2024-01-11T04:18:00.705Z,31.20
2024-01-11T04:33:01.240Z,32.20
2024-01-11T04:48:01.686Z,33.50
2024-01-11T05:03:02.067Z,34.60
2024-01-11T05:18:03.021Z,36.00
2024-01-11T05:33:03.490Z,37.10
2024-01-11T05:48:04.169Z,37.00
2024-01-11T06:03:04.531Z,38.30
2024-01-11T06:18:05.468Z,38.20
2024-01-11T06:33:05.906Z,37.30
2024-01-11T06:48:06.263Z,37.50
2024-01-11T07:03:06.873Z,38.20
2024-01-11T07:18:07.644Z,36.50
2024-01-11T07:33:09.436Z,36.00
2024-01-11T07:48:08.804Z,37.30
2024-01-11T08:03:09.317Z,39.00
2024-01-11T08:18:10.100Z,37.80
2024-01-11T08:33:10.901Z,35.90
2024-01-11T08:48:11.640Z,39.90
2024-01-11T09:03:12.216Z,37.30
2024-01-11T09:18:12.583Z,36.50
2024-01-11T09:33:12.945Z,37.30
2024-01-11T09:48:13.828Z,38.00
2024-01-11T10:03:14.237Z,36.50
2024-01-11T10:18:15.127Z,37.10
2024-01-11T10:33:15.396Z,38.90
2024-01-11T10:48:16.318Z,42.50
2024-01-11T11:03:16.649Z,39.70
2024-01-11T11:18:17.272Z,37.70
2024-01-11T11:33:18.066Z,37.60
2024-01-11T11:48:18.833Z,36.50
2024-01-11T12:03:19.470Z,37.20
2024-01-11T12:18:20.087Z,34.30
2024-01-11T12:33:20.589Z,34.70
2024-01-11T12:48:20.874Z,38.70
2024-01-11T13:03:21.555Z,39.50
2024-01-11T13:18:22.206Z,39.40
2024-01-11T13:33:22.677Z,39.10
2024-01-11T13:48:23.195Z,42.10
2024-01-11T14:03:23.911Z,42.10
2024-01-11T14:18:24.613Z,41.60
2024-01-11T14:33:25.369Z,42.50
2024-01-11T14:48:26.090Z,44.50
2024-01-11T15:03:26.642Z,44.90
2024-01-11T15:18:27.189Z,44.50
2024-01-11T15:33:27.801Z,44.70
2024-01-11T15:48:28.633Z,47.00
2024-01-11T16:03:28.747Z,48.50
2024-01-11T16:18:29.228Z,47.00
2024-01-11T16:33:29.916Z,50.10
2024-01-11T16:48:30.507Z,50.90
2024-01-11T17:03:30.794Z,50.20
2024-01-11T17:18:31.602Z,48.90
2024-01-11T17:33:32.338Z,48.40
2024-01-11T17:48:32.819Z,48.50
2024-01-11T18:03:33.713Z,45.90
2024-01-11T18:18:34.123Z,48.60
2024-01-11T18:33:34.510Z,45.70
2024-01-11T18:48:34.968Z,46.50
2024-01-11T19:03:35.537Z,45.40
2024-01-11T19:18:35.938Z,44.70
2024-01-11T19:33:36.507Z,45.50
2024-01-11T19:48:37.096Z,43.50
2024-01-11T20:03:37.592Z,41.90
2024-01-11T20:18:39.109Z,41.20
2024-01-11T20:33:38.749Z,38.60
2024-01-11T20:48:39.597Z,40.40
2024-01-11T21:03:40.181Z,36.90
2024-01-11T21:18:40.723Z,32.50
2024-01-11T21:33:41.153Z,34.80
2024-01-11T21:48:41.634Z,34.10
2024-01-11T22:03:42.093Z,34.60
2024-01-11T22:18:42.704Z,36.30
2024-01-11T22:33:42.846Z,35.50
2024-01-11T22:48:43.594Z,35.80
2024-01-11T23:03:44.035Z,35.10
2024-01-11T23:18:44.785Z,33.30
2024-01-11T23:33:45.015Z,36.00
2024-01-11T23:48:45.662Z,34.50
